createdAt,value
2023-01-11T00:01:10.044Z,4.80
2023-01-11T00:03:37.692Z,4.80
2023-01-11T00:06:14.153Z,4.80
2023-01-11T00:08:41.238Z,4.80
2023-01-11T00:11:15.442Z,4.80
2023-01-11T00:13:45.283Z,4.80
2023-01-11T00:16:16.445Z,4.80
2023-01-11T00:18:43.680Z,4.70
2023-01-11T00:21:10.688Z,4.80
2023-01-11T00:23:38.319Z,4.70
2023-01-11T00:26:07.473Z,4.80
2023-01-11T00:28:34.572Z,4.70
2023-01-11T00:31:02.003Z,4.70
2023-01-11T00:33:29.099Z,4.70
2023-01-11T00:35:56.074Z,4.70
2023-01-11T00:38:42.416Z,4.70
2023-01-11T00:41:29.777Z,4.70
2023-01-11T00:44:15.561Z,4.60
2023-01-11T00:47:01.281Z,4.70
2023-01-11T00:49:28.505Z,4.70
2023-01-11T00:51:55.437Z,4.70
2023-01-11T00:54:22.546Z,4.70
2023-01-11T00:56:49.562Z,4.70
2023-01-11T00:59:16.661Z,4.70
2023-01-11T01:01:43.851Z,4.70
2023-01-11T01:04:11.102Z,4.70
2023-01-11T01:06:38.326Z,4.70
2023-01-11T01:09:05.557Z,4.70
2023-01-11T01:11:32.617Z,4.60
2023-01-11T01:14:22.854Z,4.70
2023-01-11T01:16:50.041Z,4.70
2023-01-11T01:19:17.137Z,4.60
2023-01-11T01:21:44.347Z,4.60
2023-01-11T01:24:11.447Z,4.60
2023-01-11T01:26:38.489Z,4.60
2023-01-11T01:29:05.586Z,4.60
2023-01-11T01:31:33.081Z,4.60
2023-01-11T01:34:00.254Z,4.70
2023-01-11T01:36:27.461Z,4.70
2023-01-11T01:38:54.535Z,4.70
2023-01-11T01:41:21.779Z,4.70
2023-01-11T01:43:57.872Z,4.70
2023-01-11T01:46:30.700Z,4.60
2023-01-11T01:49:09.392Z,4.60
2023-01-11T01:51:43.459Z,4.70
2023-01-11T01:54:15.470Z,4.70
2023-01-11T01:57:00.246Z,4.70
2023-01-11T01:59:30.393Z,4.70
2023-01-11T02:01:57.868Z,4.70
2023-01-11T02:04:27.203Z,4.70
2023-01-11T02:06:59.670Z,4.70
2023-01-11T02:09:36.407Z,4.70
2023-01-11T02:12:04.479Z,4.70
2023-01-11T02:14:33.058Z,4.70
2023-01-11T02:17:00.345Z,4.70
2023-01-11T02:19:51.580Z,4.70
2023-01-11T02:22:43.239Z,4.70
2023-01-11T02:25:45.538Z,4.70
2023-01-11T02:28:29.202Z,4.70
2023-01-11T02:31:21.205Z,4.70
2023-01-11T02:34:00.266Z,4.70
2023-01-11T02:36:46.914Z,4.70
2023-01-11T02:39:16.738Z,4.70
2023-01-11T02:42:17.396Z,4.70
2023-01-11T02:45:13.398Z,4.80
2023-01-11T02:48:00.750Z,4.70
2023-01-11T02:50:46.826Z,4.80
2023-01-11T02:53:26.088Z,4.80
2023-01-11T02:55:58.632Z,4.80
2023-01-11T02:58:29.561Z,4.80
2023-01-11T03:00:58.562Z,4.80
2023-01-11T03:03:27.857Z,4.80
2023-01-11T03:06:18.362Z,4.70
2023-01-11T03:09:19.490Z,4.70
2023-01-11T03:12:46.830Z,4.70
2023-01-11T03:15:39.724Z,4.70
2023-01-11T03:18:21.875Z,4.60
2023-01-11T03:21:07.610Z,4.60
2023-01-11T03:23:45.235Z,4.60
2023-01-11T03:26:31.827Z,4.60
2023-01-11T03:29:23.432Z,4.60
2023-01-11T03:31:53.811Z,4.60
2023-01-11T03:34:34.521Z,4.60
2023-01-11T03:37:04.097Z,4.60
2023-01-11T03:39:36.813Z,4.50
2023-01-11T03:42:08.152Z,4.50
2023-01-11T03:44:46.733Z,4.50
2023-01-11T03:47:16.784Z,4.50
2023-01-11T03:49:54.623Z,4.60
2023-01-11T03:52:25.841Z,4.60
2023-01-11T03:54:56.509Z,4.60
2023-01-11T03:57:32.126Z,4.60
2023-01-11T03:59:59.847Z,4.50
2023-01-11T04:02:33.388Z,4.60
2023-01-11T04:05:00.630Z,4.60
2023-01-11T04:07:27.705Z,4.60
2023-01-11T04:09:54.836Z,4.70
2023-01-11T04:12:21.775Z,4.60
2023-01-11T04:14:48.768Z,4.60
2023-01-11T04:17:15.766Z,4.60
2023-01-11T04:19:42.966Z,4.60
2023-01-11T04:22:09.972Z,4.60
2023-01-11T04:24:37.171Z,4.60
2023-01-11T04:27:04.161Z,4.60
2023-01-11T04:29:31.206Z,4.60
2023-01-11T04:31:58.154Z,4.60
2023-01-11T04:34:25.149Z,4.60
2023-01-11T04:36:52.310Z,4.50
2023-01-11T04:39:19.412Z,4.50
2023-01-11T04:42:04.843Z,4.60
2023-01-11T04:44:31.961Z,4.60
2023-01-11T04:46:58.979Z,4.60
2023-01-11T04:49:26.137Z,4.60
2023-01-11T04:51:53.492Z,4.60
2023-01-11T04:54:20.687Z,4.60
2023-01-11T04:56:47.690Z,4.60
2023-01-11T04:59:14.796Z,4.60
2023-01-11T05:01:41.804Z,4.60
2023-01-11T05:04:08.911Z,4.60
2023-01-11T05:06:36.246Z,4.60
2023-01-11T05:09:03.559Z,4.60
2023-01-11T05:11:30.656Z,4.60
2023-01-11T05:14:00.053Z,4.60
2023-01-11T05:16:27.069Z,4.60
2023-01-11T05:18:56.547Z,4.60
2023-01-11T05:21:26.874Z,4.60
2023-01-11T05:23:54.585Z,4.60
2023-01-11T05:26:23.798Z,4.60
2023-01-11T05:28:52.057Z,4.60
2023-01-11T05:31:19.399Z,4.60
2023-01-11T05:33:46.720Z,4.60
2023-01-11T05:36:25.517Z,4.60
2023-01-11T05:38:54.734Z,4.60
2023-01-11T05:41:24.085Z,4.60
2023-01-11T05:44:10.716Z,4.60
2023-01-11T05:46:39.325Z,4.60
2023-01-11T05:49:07.989Z,4.60
2023-01-11T05:51:35.783Z,4.60
2023-01-11T05:54:04.530Z,4.50
2023-01-11T05:56:32.337Z,4.50
2023-01-11T05:58:59.975Z,4.40
2023-01-11T06:01:27.393Z,4.50
2023-01-11T06:03:54.368Z,4.50
2023-01-11T06:06:22.441Z,4.50
2023-01-11T06:08:49.534Z,4.50
2023-01-11T06:11:16.791Z,4.50
2023-01-11T06:13:43.994Z,4.50
2023-01-11T06:16:14.182Z,4.50
2023-01-11T06:18:45.869Z,4.50
2023-01-11T06:21:14.212Z,4.50
2023-01-11T06:23:44.179Z,4.50
2023-01-11T06:26:16.760Z,4.50
2023-01-11T06:28:43.831Z,4.50
2023-01-11T06:31:11.291Z,4.50
2023-01-11T06:33:39.130Z,4.50
2023-01-11T06:36:08.899Z,4.50
2023-01-11T06:38:36.875Z,4.50
2023-01-11T06:41:05.817Z,4.50
2023-01-11T06:43:33.182Z,4.50
2023-01-11T06:46:00.715Z,4.50
2023-01-11T06:48:28.281Z,4.60
2023-01-11T06:50:57.813Z,4.60
2023-01-11T06:53:28.632Z,4.60
2023-01-11T06:55:57.983Z,4.60
2023-01-11T06:58:26.177Z,4.70
2023-01-11T07:00:57.236Z,4.60
2023-01-11T07:03:27.637Z,4.60
2023-01-11T07:05:59.017Z,4.60
2023-01-11T07:08:26.683Z,4.60
2023-01-11T07:10:54.277Z,4.60
2023-01-11T07:13:22.039Z,4.70
2023-01-11T07:15:50.879Z,4.80
2023-01-11T07:18:19.055Z,4.80
2023-01-11T07:20:46.666Z,4.80
2023-01-11T07:23:14.246Z,4.80
2023-01-11T07:25:41.408Z,4.80
2023-01-11T07:28:09.425Z,4.90
2023-01-11T07:30:56.212Z,4.80
2023-01-11T07:33:25.316Z,4.80
2023-01-11T07:35:52.518Z,4.80
2023-01-11T07:38:19.656Z,4.90
2023-01-11T07:40:47.049Z,4.90
2023-01-11T07:43:15.226Z,5.00
2023-01-11T07:45:46.603Z,5.00
2023-01-11T07:48:15.820Z,5.20
2023-01-11T07:50:45.090Z,5.40
2023-01-11T07:53:13.722Z,5.60
2023-01-11T07:55:41.433Z,6.20
2023-01-11T07:58:12.387Z,6.80
2023-01-11T08:00:43.371Z,7.40
2023-01-11T08:03:11.113Z,7.60
2023-01-11T08:05:38.907Z,7.60
2023-01-11T08:08:06.978Z,8.10
2023-01-11T08:10:34.759Z,8.70
2023-01-11T08:13:20.230Z,8.80
2023-01-11T08:15:47.535Z,9.10
2023-01-11T08:18:14.583Z,9.10
2023-01-11T08:20:41.771Z,9.10
2023-01-11T08:23:10.458Z,9.30
2023-01-11T08:25:38.415Z,9.30
2023-01-11T08:28:07.311Z,9.10
2023-01-11T08:30:34.999Z,9.00
2023-01-11T08:33:02.797Z,8.90
2023-01-11T08:35:32.041Z,9.10
2023-01-11T08:37:59.156Z,9.00
2023-01-11T08:40:26.226Z,9.10
2023-01-11T08:42:57.110Z,9.20
2023-01-11T08:45:24.832Z,8.80
2023-01-11T08:47:52.608Z,9.40
2023-01-11T08:50:22.238Z,10.00
2023-01-11T08:52:51.321Z,10.20
2023-01-11T08:55:19.811Z,10.30
2023-01-11T08:57:47.463Z,10.40
2023-01-11T09:00:15.263Z,10.80
2023-01-11T09:02:42.549Z,10.90
2023-01-11T09:05:09.989Z,10.30
2023-01-11T09:07:37.205Z,10.00
2023-01-11T09:10:05.276Z,10.10
2023-01-11T09:12:32.948Z,10.80
2023-01-11T09:15:00.435Z,10.90
2023-01-11T09:17:27.837Z,10.30
2023-01-11T09:19:54.864Z,9.60
2023-01-11T09:22:21.964Z,8.80
2023-01-11T09:24:49.057Z,8.20
2023-01-11T09:27:16.668Z,7.90
2023-01-11T09:29:43.847Z,8.00
2023-01-11T09:32:10.926Z,8.60
2023-01-11T09:34:38.018Z,8.90
2023-01-11T09:37:07.002Z,9.00
2023-01-11T09:39:35.335Z,8.80
2023-01-11T09:42:36.776Z,8.50
2023-01-11T09:45:23.107Z,8.70
2023-01-11T09:48:01.019Z,9.40
2023-01-11T09:50:40.035Z,9.30
2023-01-11T09:53:12.292Z,8.90
2023-01-11T09:55:47.187Z,8.60
2023-01-11T09:58:32.615Z,8.70
2023-01-11T10:01:17.651Z,9.10
2023-01-11T10:04:11.883Z,8.50
2023-01-11T10:06:42.616Z,7.60
2023-01-11T10:18:27.914Z,7.20
2023-01-11T10:18:58.539Z,7.60
2023-01-11T10:21:31.847Z,8.50
2023-01-11T10:24:03.817Z,8.90
2023-01-11T10:26:40.063Z,9.20
2023-01-11T10:29:53.956Z,9.60
2023-01-11T10:32:54.402Z,9.90
2023-01-11T10:35:45.952Z,9.90
2023-01-11T10:38:52.157Z,9.30
2023-01-11T10:41:49.036Z,9.20
2023-01-11T10:44:26.881Z,9.30
2023-01-11T10:46:55.199Z,9.60
2023-01-11T10:49:36.736Z,9.40
2023-01-11T10:52:28.394Z,8.70
2023-01-11T10:54:57.516Z,8.10
2023-01-11T10:58:03.411Z,7.80
2023-01-11T11:00:51.625Z,7.90
2023-01-11T11:03:35.338Z,8.10
2023-01-11T11:06:13.491Z,8.30
2023-01-11T11:08:43.524Z,8.70
2023-01-11T11:11:26.777Z,8.30
2023-01-11T11:14:24.040Z,7.90
2023-01-11T11:16:59.639Z,7.30
2023-01-11T11:19:32.367Z,7.00
2023-01-11T11:22:00.620Z,7.10
2023-01-11T11:24:49.862Z,7.20
2023-01-11T11:27:35.670Z,7.40
2023-01-11T11:30:03.478Z,7.70
2023-01-11T11:32:37.753Z,7.70
2023-01-11T11:35:07.861Z,7.70
2023-01-11T11:37:39.765Z,7.90
2023-01-11T11:40:07.341Z,7.90
2023-01-11T11:42:34.366Z,7.90
2023-01-11T11:45:14.010Z,8.00
2023-01-11T11:47:41.064Z,8.20
2023-01-11T11:50:42.013Z,8.30
2023-01-11T11:53:07.488Z,8.30
2023-01-11T11:55:35.620Z,8.30
2023-01-11T11:58:08.697Z,8.00
2023-01-11T12:00:43.133Z,7.70
2023-01-11T12:03:26.271Z,7.90
2023-01-11T12:05:55.747Z,8.00
2023-01-11T12:08:25.162Z,8.00
2023-01-11T12:11:05.623Z,7.80
2023-01-11T12:13:36.340Z,7.70
2023-01-11T12:16:19.214Z,7.70
2023-01-11T12:18:47.000Z,7.70
2023-01-11T12:21:26.257Z,7.70
2023-01-11T12:24:23.817Z,7.60
2023-01-11T12:27:05.906Z,7.50
2023-01-11T12:29:53.044Z,7.50
2023-01-11T12:33:07.822Z,7.50
2023-01-11T12:36:03.721Z,7.60
2023-01-11T12:38:40.605Z,7.70
2023-01-11T12:41:44.289Z,7.70
2023-01-11T12:44:15.023Z,7.70
2023-01-11T12:47:00.137Z,7.70
2023-01-11T12:49:32.494Z,7.80
2023-01-11T12:52:08.596Z,7.60
2023-01-11T12:55:01.771Z,7.60
2023-01-11T12:58:05.090Z,7.50
2023-01-11T13:00:44.475Z,7.50
2023-01-11T13:03:34.399Z,7.50
2023-01-11T13:06:31.447Z,7.60
2023-01-11T13:09:20.989Z,7.50
2023-01-11T13:12:13.281Z,7.50
2023-01-11T13:14:58.505Z,7.50
2023-01-11T13:17:38.946Z,7.60
2023-01-11T13:20:40.369Z,7.60
2023-01-11T13:23:42.027Z,7.60
2023-01-11T13:26:44.939Z,7.50
2023-01-11T13:29:18.923Z,7.50
2023-01-11T13:31:48.474Z,7.40
2023-01-11T13:34:23.988Z,7.40
2023-01-11T13:36:59.892Z,7.40
2023-01-11T13:39:40.592Z,7.30
2023-01-11T13:42:26.771Z,7.30
2023-01-11T13:45:35.616Z,7.20
2023-01-11T13:48:08.665Z,7.20
2023-01-11T13:50:42.303Z,7.10
2023-01-11T13:53:37.622Z,7.10
2023-01-11T13:56:30.858Z,7.10
2023-01-11T13:59:09.074Z,7.10
2023-01-11T14:01:41.537Z,7.00
2023-01-11T14:04:30.251Z,7.00
2023-01-11T14:07:23.485Z,6.90
2023-01-11T14:10:02.558Z,6.90
2023-01-11T14:13:01.310Z,6.90
2023-01-11T14:15:40.998Z,6.80
2023-01-11T14:18:23.455Z,6.80
2023-01-11T14:21:33.610Z,6.80
2023-01-11T14:24:02.533Z,6.70
2023-01-11T14:26:59.391Z,6.70
2023-01-11T14:30:00.446Z,6.70
2023-01-11T14:33:04.791Z,6.60
2023-01-11T14:35:47.207Z,6.60
2023-01-11T14:38:20.026Z,6.50
2023-01-11T14:41:05.708Z,6.50
2023-01-11T14:43:38.984Z,6.40
2023-01-11T14:46:41.424Z,6.40
2023-01-11T14:49:20.304Z,6.30
2023-01-11T14:51:56.658Z,6.30
2023-01-11T14:54:32.473Z,6.20
2023-01-11T14:57:00.688Z,6.10
2023-01-11T14:59:30.636Z,6.10
2023-01-11T15:02:04.200Z,6.00
2023-01-11T15:04:59.209Z,5.90
2023-01-11T15:07:29.089Z,5.90
2023-01-11T15:09:58.659Z,5.80
2023-01-11T15:12:36.055Z,5.80
2023-01-11T15:15:14.790Z,5.80
2023-01-11T15:18:01.036Z,5.70
2023-01-11T15:20:28.617Z,5.60
2023-01-11T15:22:58.435Z,5.60
2023-01-11T15:25:34.022Z,5.60
2023-01-11T15:28:25.485Z,5.50
2023-01-11T15:30:53.113Z,5.50
2023-01-11T15:33:20.375Z,5.40
2023-01-11T15:35:56.979Z,5.40
2023-01-11T15:38:42.817Z,5.40
2023-01-11T15:41:34.947Z,5.40
2023-01-11T15:44:08.298Z,5.30
2023-01-11T15:46:53.382Z,5.20
2023-01-11T15:49:42.295Z,5.30
2023-01-11T15:52:40.423Z,5.20
2023-01-11T15:55:26.070Z,5.10
2023-01-11T15:57:56.196Z,5.10
2023-01-11T16:00:44.385Z,5.00
2023-01-11T16:03:29.575Z,5.00
2023-01-11T16:06:08.977Z,5.00
2023-01-11T16:08:50.159Z,4.90
2023-01-11T16:11:28.789Z,4.80
2023-01-11T16:13:56.032Z,4.80
2023-01-11T16:16:33.526Z,4.70
2023-01-11T16:19:14.375Z,4.70
2023-01-11T16:21:43.939Z,4.70
2023-01-11T16:24:20.816Z,4.70
2023-01-11T16:26:58.832Z,4.60
2023-01-11T16:29:30.617Z,4.60
2023-01-11T16:32:00.831Z,4.60
2023-01-11T16:34:30.007Z,4.60
2023-01-11T16:36:57.995Z,4.60
2023-01-11T16:39:28.577Z,4.50
2023-01-11T16:42:14.670Z,4.50
2023-01-11T16:44:57.617Z,4.50
2023-01-11T16:47:24.690Z,4.40
2023-01-11T16:50:23.102Z,4.50
2023-01-11T16:52:55.139Z,4.50
2023-01-11T16:55:31.228Z,4.40
2023-01-11T16:58:26.391Z,4.50
2023-01-11T17:01:14.527Z,4.50
2023-01-11T17:03:54.627Z,4.50
2023-01-11T17:06:25.710Z,4.60
2023-01-11T17:08:57.361Z,4.50
2023-01-11T17:11:29.712Z,4.40
2023-01-11T17:14:34.177Z,4.30
2023-01-11T17:17:04.532Z,4.20
2023-01-11T17:19:34.878Z,4.10
2023-01-11T17:22:14.689Z,4.00
2023-01-11T17:24:46.483Z,3.90
2023-01-11T17:27:21.129Z,3.90
2023-01-11T17:29:49.264Z,3.80
2023-01-11T17:32:42.760Z,3.90
2023-01-11T17:35:24.879Z,3.90
2023-01-11T17:37:55.894Z,3.90
2023-01-11T17:40:35.923Z,3.90
2023-01-11T17:43:25.628Z,3.90
2023-01-11T17:45:59.663Z,3.90
2023-01-11T17:48:28.228Z,3.80
2023-01-11T17:51:01.182Z,3.80
2023-01-11T17:53:34.143Z,3.90
2023-01-11T17:56:07.391Z,3.90
2023-01-11T17:58:36.547Z,3.80
2023-01-11T18:01:09.830Z,3.80
2023-01-11T18:03:54.768Z,3.80
2023-01-11T18:06:42.560Z,3.80
2023-01-11T18:09:30.608Z,3.80
2023-01-11T18:12:13.888Z,3.80
2023-01-11T18:14:52.548Z,3.80
2023-01-11T18:17:44.385Z,3.80
2023-01-11T18:20:14.885Z,3.80
2023-01-11T18:22:56.792Z,3.70
2023-01-11T18:25:26.331Z,3.60
2023-01-11T18:28:21.465Z,3.50
2023-01-11T18:30:54.004Z,3.30
2023-01-11T18:33:23.845Z,3.10
2023-01-11T18:35:53.685Z,3.10
2023-01-11T18:38:25.500Z,3.00
2023-01-11T18:40:54.520Z,3.00
2023-01-11T18:43:28.105Z,2.90
2023-01-11T18:45:55.822Z,2.90
2023-01-11T18:48:23.313Z,3.00
2023-01-11T18:50:52.182Z,3.00
2023-01-11T18:53:19.220Z,3.00
2023-01-11T18:55:46.499Z,3.00
2023-01-11T18:58:13.964Z,3.00
2023-01-11T19:00:41.743Z,3.00
2023-01-11T19:03:11.695Z,3.00
2023-01-11T19:05:40.098Z,2.90
2023-01-11T19:08:07.921Z,2.90
2023-01-11T19:10:35.092Z,3.00
2023-01-11T19:13:02.310Z,3.00
2023-01-11T19:15:29.368Z,3.00
2023-01-11T19:17:56.639Z,3.00
2023-01-11T19:20:23.697Z,3.00
2023-01-11T19:22:50.855Z,3.00
2023-01-11T19:25:17.940Z,3.00
2023-01-11T19:27:44.999Z,3.00
2023-01-11T19:30:12.979Z,2.90
2023-01-11T19:32:40.173Z,2.80
2023-01-11T19:35:08.345Z,2.80
2023-01-11T19:37:37.632Z,2.70
2023-01-11T19:40:05.879Z,2.60
2023-01-11T19:42:32.860Z,2.60
2023-01-11T19:44:59.929Z,2.50
2023-01-11T19:47:27.063Z,2.50
2023-01-11T19:49:56.508Z,2.50
2023-01-11T19:52:23.706Z,2.40
2023-01-11T19:54:51.390Z,2.40
2023-01-11T19:57:20.698Z,2.40
2023-01-11T19:59:48.852Z,2.40
2023-01-11T20:02:19.595Z,2.40
2023-01-11T20:04:47.481Z,2.40
2023-01-11T20:07:15.940Z,2.50
2023-01-11T20:09:43.316Z,2.50
2023-01-11T20:12:12.508Z,2.50
2023-01-11T20:14:40.847Z,2.50
2023-01-11T20:17:08.324Z,2.50
2023-01-11T20:19:35.488Z,2.60
2023-01-11T20:22:03.321Z,2.60
2023-01-11T20:24:30.741Z,2.60
2023-01-11T20:26:59.985Z,2.60
2023-01-11T20:29:27.838Z,2.60
2023-01-11T20:31:55.096Z,2.80
2023-01-11T20:34:22.236Z,2.90
2023-01-11T20:36:49.583Z,3.00
2023-01-11T20:39:17.609Z,3.10
2023-01-11T20:41:47.641Z,3.20
2023-01-11T20:44:20.263Z,3.20
2023-01-11T20:46:48.573Z,3.20
2023-01-11T20:49:17.205Z,3.20
2023-01-11T20:51:45.868Z,3.10
2023-01-11T20:54:13.912Z,3.20
2023-01-11T20:56:41.820Z,3.30
2023-01-11T21:01:37.759Z,3.40
2023-01-11T21:04:08.459Z,3.30
2023-01-11T21:06:38.736Z,3.20
2023-01-11T21:09:07.079Z,3.00
2023-01-11T21:11:34.693Z,2.90
2023-01-11T21:14:04.253Z,2.70
2023-01-11T21:16:31.700Z,2.60
2023-01-11T21:19:01.625Z,2.50
2023-01-11T21:21:30.834Z,2.60
2023-01-11T21:24:00.562Z,2.50
2023-01-11T21:26:28.464Z,2.50
2023-01-11T21:29:00.704Z,2.50
2023-01-11T21:31:30.799Z,2.40
2023-01-11T21:33:59.040Z,2.40
2023-01-11T21:36:27.899Z,2.30
2023-01-11T21:38:56.918Z,2.30
2023-01-11T21:41:47.764Z,2.20
2023-01-11T21:44:16.205Z,2.20
2023-01-11T21:46:43.780Z,2.20
2023-01-11T21:49:11.786Z,2.20
2023-01-11T21:51:39.956Z,2.20
2023-01-11T21:54:09.406Z,2.20
2023-01-11T21:56:37.210Z,2.10
2023-01-11T21:59:04.882Z,2.10
2023-01-11T22:01:31.895Z,2.30
2023-01-11T22:03:59.175Z,2.40
2023-01-11T22:06:26.383Z,2.50
2023-01-11T22:08:53.492Z,2.50
2023-01-11T22:11:20.624Z,2.60
2023-01-11T22:13:47.666Z,2.50
2023-01-11T22:16:17.617Z,2.50
2023-01-11T22:18:45.848Z,2.60
2023-01-11T22:21:22.387Z,2.70
2023-01-11T22:23:54.087Z,2.70
2023-01-11T22:26:21.714Z,2.70
2023-01-11T22:29:10.855Z,2.60
2023-01-11T22:31:42.085Z,2.60
2023-01-11T22:34:10.201Z,2.50
2023-01-11T22:36:37.583Z,2.50
2023-01-11T22:39:05.045Z,2.50
2023-01-11T22:41:32.582Z,2.50
2023-01-11T22:43:59.667Z,2.50
2023-01-11T22:46:27.800Z,2.60
2023-01-11T22:48:55.226Z,2.60
2023-01-11T22:51:25.928Z,2.70
2023-01-11T22:53:54.542Z,2.80
2023-01-11T22:56:25.582Z,2.80
2023-01-11T22:58:53.960Z,2.80
2023-01-11T23:01:26.953Z,2.80
2023-01-11T23:03:55.470Z,2.80
2023-01-11T23:06:43.168Z,2.90
2023-01-11T23:09:15.957Z,2.90
2023-01-11T23:12:02.674Z,2.90
2023-01-11T23:14:31.256Z,2.80
2023-01-11T23:17:08.332Z,2.80
2023-01-11T23:19:37.688Z,2.90
2023-01-11T23:22:05.601Z,2.90
2023-01-11T23:24:33.333Z,3.00
2023-01-11T23:27:00.609Z,3.10
2023-01-11T23:29:27.913Z,3.10
2023-01-11T23:31:55.112Z,3.00
2023-01-11T23:34:22.405Z,3.10
2023-01-11T23:36:49.477Z,3.00
2023-01-11T23:39:18.850Z,3.10
2023-01-11T23:42:04.835Z,3.10
2023-01-11T23:44:32.142Z,3.10
2023-01-11T23:47:17.704Z,3.20
2023-01-11T23:49:45.583Z,3.30
2023-01-11T23:52:12.709Z,3.30
2023-01-11T23:54:39.985Z,3.30
2023-01-11T23:57:07.433Z,3.30
2023-01-11T23:59:34.536Z,3.20
